Time;durP1;ratioP1;P1;durP2;ratioP2;P2;SDS_P1;SDS_P2;PMS_P1;PMS_P2;Temp;Humidity;BMP_temperature;BMP_pressure;BME280_temperature;BME280_humidity;BME280_pressure;Samples;Min_cycle;Max_cycle;Signal;HPM_P1;HPM_P2
2023/08/20 00:01:12;;;;;;;6.20;5.63;;;24.70;99.90;;;;;;5083236;28;20193;-71
2023/08/20 00:03:40;;;;;;;5.55;5.15;;;24.70;99.90;;;;;;5080438;28;20244;-72
2023/08/20 00:06:08;;;;;;;5.70;5.30;;;24.60;99.90;;;;;;5084195;28;20261;-71
2023/08/20 00:08:37;;;;;;;5.60;5.10;;;24.60;99.90;;;;;;5082719;28;20687;-72
2023/08/20 00:11:04;;;;;;;6.03;5.63;;;24.60;99.90;;;;;;5084393;28;20186;-71
2023/08/20 00:13:31;;;;;;;5.97;5.57;;;24.60;99.90;;;;;;5086278;28;20228;-71
2023/08/20 00:15:59;;;;;;;5.75;5.35;;;24.60;99.90;;;;;;5085131;28;20623;-71
2023/08/20 00:18:26;;;;;;;6.07;5.57;;;24.50;99.90;;;;;;5081555;28;20201;-72
2023/08/20 00:20:54;;;;;;;5.50;5.10;;;24.60;99.90;;;;;;5064113;28;20746;-72
2023/08/20 00:23:22;;;;;;;5.90;5.50;;;24.50;99.90;;;;;;5087293;28;20201;-72
2023/08/20 00:25:52;;;;;;;6.50;5.70;;;24.50;99.90;;;;;;5080237;28;20259;-71
2023/08/20 00:28:21;;;;;;;6.45;5.93;;;24.50;99.90;;;;;;5083504;28;20604;-72
2023/08/20 00:30:49;;;;;;;6.78;6.28;;;24.50;99.90;;;;;;5085523;28;20229;-71
2023/08/20 00:33:16;;;;;;;7.03;6.40;;;24.50;99.90;;;;;;5080975;28;20209;-72
2023/08/20 00:35:43;;;;;;;6.45;5.95;;;24.50;99.90;;;;;;5081883;28;20251;-71
2023/08/20 00:38:10;;;;;;;6.53;6.03;;;24.50;99.90;;;;;;5084036;28;20616;-72
2023/08/20 00:40:37;;;;;;;5.90;5.50;;;24.50;99.90;;;;;;5081546;28;20251;-71
2023/08/20 00:43:06;;;;;;;6.40;5.90;;;24.50;99.90;;;;;;5082886;28;20227;-72
2023/08/20 00:45:33;;;;;;;6.35;5.85;;;24.50;99.90;;;;;;5079432;28;20241;-72
2023/08/20 00:48:00;;;;;;;6.35;5.75;;;24.40;99.90;;;;;;5063175;28;20209;-71
2023/08/20 00:50:27;;;;;;;6.43;5.68;;;24.40;99.90;;;;;;5079288;28;20202;-72
2023/08/20 00:52:54;;;;;;;6.15;5.75;;;24.40;99.90;;;;;;5081034;28;20198;-71
2023/08/20 00:55:21;;;;;;;6.80;6.20;;;24.30;99.90;;;;;;5060206;28;20859;-71
2023/08/20 00:57:48;;;;;;;6.30;5.80;;;24.30;99.90;;;;;;5078108;28;20229;-72
2023/08/20 01:00:18;;;;;;;6.47;5.93;;;24.30;99.90;;;;;;5075766;28;20843;-72
2023/08/20 01:02:45;;;;;;;7.32;6.55;;;24.30;99.90;;;;;;5079389;28;20201;-73
2023/08/20 01:05:13;;;;;;;6.63;6.05;;;24.30;99.90;;;;;;5081089;28;20224;-72
2023/08/20 01:07:50;;;;;;;7.93;7.30;;;24.30;99.90;;;;;;5061718;28;20203;-72
2023/08/20 01:10:26;;;;;;;6.90;6.38;;;24.30;99.90;;;;;;5077427;28;20686;-72
2023/08/20 01:12:54;;;;;;;6.75;6.15;;;24.20;99.90;;;;;;5082493;28;20291;-73
2023/08/20 01:15:22;;;;;;;6.40;5.90;;;24.20;99.90;;;;;;5071252;28;20267;-72
2023/08/20 01:17:50;;;;;;;6.43;5.93;;;24.20;99.90;;;;;;5081425;28;20197;-72
2023/08/20 01:20:17;;;;;;;6.40;5.90;;;24.20;99.90;;;;;;5075816;28;20215;-72
2023/08/20 01:23:17;;;;;;;5.93;5.43;;;24.10;99.90;;;;;;5082642;28;20247;-72
2023/08/20 01:26:04;;;;;;;6.30;5.80;;;24.10;99.90;;;;;;5082906;28;20197;-73
2023/08/20 01:28:33;;;;;;;6.25;5.85;;;24.10;99.90;;;;;;5053316;28;20219;-72
2023/08/20 01:31:02;;;;;;;6.47;5.90;;;24.10;99.90;;;;;;5066120;28;20197;-72
2023/08/20 01:33:30;;;;;;;8.40;6.00;;;24.00;99.90;;;;;;5077841;28;20316;-72
2023/08/20 01:35:57;;;;;;;6.32;5.82;;;24.00;99.90;;;;;;5080315;28;20247;-72
2023/08/20 01:38:24;;;;;;;6.80;6.20;;;23.90;99.90;;;;;;5080036;28;20198;-72
2023/08/20 01:40:51;;;;;;;5.90;5.38;;;23.90;99.90;;;;;;5081375;28;20241;-72
2023/08/20 01:43:18;;;;;;;6.15;5.65;;;23.90;99.90;;;;;;5077583;28;20202;-72
2023/08/20 01:45:47;;;;;;;6.10;5.60;;;23.80;99.90;;;;;;5081443;28;20303;-72
2023/08/20 01:48:14;;;;;;;6.60;6.00;;;23.80;99.90;;;;;;5082281;28;20659;-72
2023/08/20 01:50:41;;;;;;;5.93;5.43;;;23.80;99.90;;;;;;5076451;28;20243;-72
2023/08/20 01:53:09;;;;;;;6.68;6.07;;;23.70;99.90;;;;;;5077826;28;20197;-72
2023/08/20 01:55:36;;;;;;;6.53;6.00;;;23.70;99.90;;;;;;5073595;28;20283;-72
2023/08/20 01:58:03;;;;;;;6.13;5.63;;;23.70;99.90;;;;;;5079880;28;20227;-72
2023/08/20 02:00:31;;;;;;;5.97;5.50;;;23.70;99.90;;;;;;5075425;28;20267;-72
2023/08/20 02:02:59;;;;;;;5.90;5.50;;;23.70;99.90;;;;;;5062209;28;20205;-73
2023/08/20 02:05:28;;;;;;;6.30;5.90;;;23.70;99.90;;;;;;5081476;28;20374;-72
2023/08/20 02:07:55;;;;;;;6.35;5.85;;;23.70;99.90;;;;;;5083551;28;20202;-72
2023/08/20 02:10:22;;;;;;;6.68;6.18;;;23.70;99.90;;;;;;5081223;28;20211;-72
2023/08/20 02:12:49;;;;;;;6.55;6.05;;;23.70;99.90;;;;;;5085195;28;20202;-72
2023/08/20 02:15:16;;;;;;;6.70;6.10;;;23.60;99.90;;;;;;5086465;28;20249;-72
2023/08/20 02:17:43;;;;;;;5.80;5.40;;;23.60;99.90;;;;;;5066162;28;20284;-72
2023/08/20 02:20:13;;;;;;;5.88;5.38;;;23.60;99.90;;;;;;5080566;28;20253;-71
2023/08/20 02:22:40;;;;;;;5.90;5.40;;;23.60;99.90;;;;;;5083811;28;20201;-72
2023/08/20 02:25:08;;;;;;;5.68;5.28;;;23.50;99.90;;;;;;5062900;28;20221;-71
2023/08/20 02:27:35;;;;;;;5.70;5.30;;;23.50;99.90;;;;;;5065160;28;20194;-72
2023/08/20 02:30:03;;;;;;;6.22;5.30;;;23.40;99.90;;;;;;5083889;28;20574;-72
2023/08/20 02:32:31;;;;;;;6.20;5.70;;;23.40;99.90;;;;;;5088723;28;20398;-72
2023/08/20 02:34:58;;;;;;;6.88;6.30;;;23.40;99.90;;;;;;5082340;28;20252;-72
2023/08/20 02:37:27;;;;;;;6.57;5.97;;;23.40;99.90;;;;;;5086279;28;20255;-72
2023/08/20 02:39:54;;;;;;;6.68;6.13;;;23.30;99.90;;;;;;5085936;28;20625;-73
2023/08/20 02:42:21;;;;;;;6.75;6.10;;;23.30;99.90;;;;;;5087445;28;20193;-72
2023/08/20 02:44:48;;;;;;;6.47;5.95;;;23.30;99.90;;;;;;5084448;28;20270;-72
2023/08/20 02:47:15;;;;;;;6.45;5.95;;;23.30;99.90;;;;;;5082398;28;20201;-72
2023/08/20 02:49:42;;;;;;;6.18;5.68;;;23.30;99.90;;;;;;5083243;28;20206;-72
2023/08/20 02:52:09;;;;;;;6.35;5.85;;;23.30;99.90;;;;;;5080963;28;20489;-72
2023/08/20 02:54:38;;;;;;;6.47;5.88;;;23.30;99.90;;;;;;5083133;28;20455;-72
2023/08/20 02:57:05;;;;;;;6.72;6.22;;;23.40;99.90;;;;;;5064558;28;20640;-72
2023/08/20 02:59:32;;;;;;;6.03;5.60;;;23.40;99.90;;;;;;5082481;28;20609;-72
2023/08/20 03:01:59;;;;;;;6.55;5.93;;;23.40;99.90;;;;;;5081492;28;20270;-72
2023/08/20 03:04:26;;;;;;;5.50;5.10;;;23.40;99.90;;;;;;5080569;28;20233;-72
2023/08/20 03:06:53;;;;;;;6.55;5.95;;;23.30;99.90;;;;;;5082171;28;21811;-72
2023/08/20 03:09:20;;;;;;;5.97;5.47;;;23.30;99.90;;;;;;5081449;28;20247;-72
2023/08/20 03:11:49;;;;;;;5.50;5.10;;;23.30;99.90;;;;;;5067928;28;20198;-72
2023/08/20 03:14:16;;;;;;;6.10;5.60;;;23.20;99.90;;;;;;5080888;28;20222;-72
2023/08/20 03:16:43;;;;;;;6.28;5.63;;;23.20;99.90;;;;;;5085405;28;20268;-71
2023/08/20 03:19:10;;;;;;;6.45;5.85;;;23.20;99.90;;;;;;5084643;28;20283;-71
2023/08/20 03:21:37;;;;;;;6.72;6.22;;;23.20;99.90;;;;;;5084404;28;20214;-71
2023/08/20 03:24:05;;;;;;;6.40;5.90;;;23.20;99.90;;;;;;5085988;28;20213;-71
2023/08/20 03:26:32;;;;;;;6.50;6.00;;;23.20;99.90;;;;;;5077833;28;20206;-72
2023/08/20 03:29:01;;;;;;;6.05;5.65;;;23.20;99.90;;;;;;5083818;28;20365;-73
2023/08/20 03:31:28;;;;;;;6.05;5.63;;;23.20;99.90;;;;;;5079614;28;20198;-72
2023/08/20 03:33:55;;;;;;;6.30;5.70;;;23.10;99.90;;;;;;5079257;28;20217;-72
2023/08/20 03:36:22;;;;;;;6.15;5.65;;;23.10;99.90;;;;;;5066405;28;20216;-71
2023/08/20 03:38:49;;;;;;;6.13;5.72;;;23.00;99.90;;;;;;5086796;28;20611;-71
2023/08/20 03:41:17;;;;;;;5.72;5.32;;;22.90;99.90;;;;;;5082151;28;20222;-72
2023/08/20 03:43:44;;;;;;;5.93;5.45;;;22.90;99.90;;;;;;5088537;28;20324;-71
2023/08/20 03:46:12;;;;;;;5.57;5.18;;;22.90;99.90;;;;;;5067437;28;20284;-72
2023/08/20 03:48:39;;;;;;;5.10;4.60;;;22.90;99.90;;;;;;5082612;28;20214;-71
2023/08/20 03:51:06;;;;;;;5.90;5.40;;;22.90;99.90;;;;;;5069938;28;20730;-72
2023/08/20 03:53:33;;;;;;;5.65;5.25;;;22.90;99.90;;;;;;5085165;28;20201;-72
2023/08/20 03:56:00;;;;;;;5.70;5.22;;;22.90;99.90;;;;;;5078476;28;20198;-71
2023/08/20 03:58:27;;;;;;;5.20;4.80;;;22.90;99.90;;;;;;5080189;28;20233;-71
2023/08/20 04:00:54;;;;;;;6.10;5.57;;;22.90;99.90;;;;;;5077134;28;20220;-72
2023/08/20 04:03:23;;;;;;;5.68;5.28;;;22.90;99.90;;;;;;5085113;28;20335;-72
2023/08/20 04:05:51;;;;;;;5.78;5.38;;;23.00;99.90;;;;;;5082742;28;20260;-71
2023/08/20 04:08:18;;;;;;;6.03;5.53;;;22.90;99.90;;;;;;5083904;28;20207;-72
2023/08/20 04:10:45;;;;;;;5.97;5.45;;;22.90;99.90;;;;;;5083688;28;20201;-71
2023/08/20 04:13:13;;;;;;;6.20;5.70;;;22.90;99.90;;;;;;5085832;28;20266;-71
2023/08/20 04:15:41;;;;;;;5.80;5.40;;;22.80;99.90;;;;;;5079791;28;20204;-71
2023/08/20 04:18:08;;;;;;;6.25;5.65;;;22.80;99.90;;;;;;5084566;28;20296;-71
2023/08/20 04:20:38;;;;;;;6.65;6.10;;;22.80;99.90;;;;;;5082150;28;20302;-71
2023/08/20 04:23:05;;;;;;;6.35;5.85;;;22.70;99.90;;;;;;5084007;28;20193;-73
2023/08/20 04:25:32;;;;;;;5.68;5.28;;;22.70;99.90;;;;;;5081992;28;20221;-71
2023/08/20 04:27:59;;;;;;;5.90;5.40;;;22.70;99.90;;;;;;5082448;28;20236;-72
2023/08/20 04:30:26;;;;;;;5.97;5.47;;;22.70;99.90;;;;;;5079721;28;20202;-72
2023/08/20 04:32:53;;;;;;;5.90;5.40;;;22.70;99.90;;;;;;5083838;28;20194;-72
2023/08/20 04:35:20;;;;;;;5.68;5.20;;;22.70;99.90;;;;;;5077519;28;20359;-72
2023/08/20 04:37:49;;;;;;;6.13;5.63;;;22.70;99.90;;;;;;5075049;28;20695;-71
2023/08/20 04:40:16;;;;;;;6.55;5.95;;;22.80;99.90;;;;;;5081618;28;20197;-71
2023/08/20 04:42:43;;;;;;;5.90;5.40;;;22.80;99.90;;;;;;5081620;28;20194;-71
2023/08/20 04:45:11;;;;;;;6.32;5.82;;;22.80;99.90;;;;;;5062238;28;20217;-72
2023/08/20 04:47:38;;;;;;;6.22;5.72;;;22.80;99.90;;;;;;5083263;28;20284;-73
2023/08/20 04:50:07;;;;;;;6.15;5.65;;;22.80;99.90;;;;;;5083280;28;20247;-71
2023/08/20 04:52:34;;;;;;;5.72;5.32;;;22.80;99.90;;;;;;5083396;28;20194;-71
2023/08/20 04:55:02;;;;;;;5.80;5.30;;;22.70;99.90;;;;;;5079731;28;20219;-71
2023/08/20 04:57:29;;;;;;;6.03;5.53;;;22.60;99.90;;;;;;5081691;28;20266;-71
2023/08/20 04:59:56;;;;;;;5.68;5.13;;;22.60;99.90;;;;;;5081958;28;20335;-71
2023/08/20 05:02:23;;;;;;;5.38;4.97;;;22.60;99.90;;;;;;5082172;28;20603;-72
2023/08/20 05:04:51;;;;;;;5.53;5.13;;;22.60;99.90;;;;;;5080673;28;20214;-71
2023/08/20 05:07:18;;;;;;;5.10;4.70;;;22.70;99.90;;;;;;5081179;28;20996;-71
2023/08/20 05:09:45;;;;;;;6.20;5.70;;;22.90;99.90;;;;;;5062124;28;20262;-71
2023/08/20 05:12:13;;;;;;;5.93;5.40;;;23.20;99.90;;;;;;5059511;28;20286;-71
2023/08/20 05:14:40;;;;;;;5.85;5.32;;;23.30;99.90;;;;;;5083208;28;20218;-71
2023/08/20 05:17:08;;;;;;;6.03;5.53;;;23.50;99.90;;;;;;5076279;28;20294;-72
2023/08/20 05:19:35;;;;;;;5.47;4.97;;;23.70;99.90;;;;;;5080848;28;20193;-71
2023/08/20 05:22:01;;;;;;;5.35;4.90;;;24.00;99.90;;;;;;5080870;28;20698;-72
2023/08/20 05:24:28;;;;;;;6.07;5.68;;;24.20;99.90;;;;;;5080245;28;20479;-72
2023/08/20 05:27:06;;;;;;;6.28;5.68;;;24.30;99.90;;;;;;5080084;28;20233;-72
2023/08/20 05:29:34;;;;;;;6.53;5.93;;;24.40;99.90;;;;;;5080076;28;20254;-71
2023/08/20 05:32:01;;;;;;;5.78;5.28;;;24.50;99.90;;;;;;5076049;28;20243;-72
2023/08/20 05:34:28;;;;;;;5.40;5.00;;;24.50;99.90;;;;;;5071520;28;20644;-71
2023/08/20 05:36:55;;;;;;;5.32;4.93;;;24.50;99.90;;;;;;5074177;28;20233;-71
2023/08/20 05:39:25;;;;;;;5.65;5.15;;;24.50;99.90;;;;;;5061646;28;20280;-71
2023/08/20 05:41:52;;;;;;;5.35;4.85;;;24.60;99.90;;;;;;5079952;28;20272;-71
2023/08/20 05:44:19;;;;;;;5.93;5.40;;;24.70;99.90;;;;;;5066390;28;20300;-71
2023/08/20 05:46:47;;;;;;;5.25;4.75;;;24.80;99.90;;;;;;5080349;28;20509;-72
2023/08/20 05:49:15;;;;;;;5.18;4.65;;;24.90;99.90;;;;;;5089481;28;20201;-72
2023/08/20 05:51:42;;;;;;;5.10;4.70;;;25.10;99.90;;;;;;5085508;28;20198;-71
2023/08/20 05:54:09;;;;;;;5.30;4.80;;;25.10;99.90;;;;;;5086476;28;20221;-73
2023/08/20 05:56:36;;;;;;;5.25;4.80;;;25.10;99.90;;;;;;5063298;28;20194;-72
2023/08/20 05:59:04;;;;;;;4.80;4.40;;;25.40;99.90;;;;;;5082383;28;20250;-72
2023/08/20 06:01:31;;;;;;;4.97;4.57;;;25.60;99.90;;;;;;5089038;28;20249;-72
2023/08/20 06:03:59;;;;;;;6.07;5.00;;;25.50;99.90;;;;;;5083022;28;20278;-72
2023/08/20 06:06:27;;;;;;;4.97;4.57;;;25.50;99.90;;;;;;5083157;28;20205;-71
2023/08/20 06:08:54;;;;;;;5.07;4.40;;;25.40;99.90;;;;;;5083448;28;20264;-71
2023/08/20 06:11:21;;;;;;;5.97;4.43;;;25.50;99.90;;;;;;5063563;28;20218;-71
2023/08/20 06:13:48;;;;;;;4.63;4.15;;;25.60;99.90;;;;;;5083631;28;20776;-71
2023/08/20 06:16:15;;;;;;;4.43;4.03;;;25.60;99.90;;;;;;5085538;28;20585;-71
2023/08/20 06:18:42;;;;;;;4.80;4.30;;;25.80;99.90;;;;;;5080582;28;20229;-71
2023/08/20 06:21:11;;;;;;;4.82;4.40;;;25.80;99.90;;;;;;5068135;28;20210;-71
2023/08/20 06:23:38;;;;;;;4.93;4.50;;;25.90;99.90;;;;;;5085324;28;20221;-71
2023/08/20 06:26:05;;;;;;;7.13;4.38;;;26.10;99.90;;;;;;5086027;28;20197;-71
2023/08/20 06:28:32;;;;;;;5.07;4.57;;;26.30;99.90;;;;;;5079663;28;20283;-71
2023/08/20 06:30:59;;;;;;;5.15;4.60;;;26.30;99.90;;;;;;5084400;28;20648;-71
2023/08/20 06:33:26;;;;;;;5.10;4.25;;;26.00;99.90;;;;;;5078824;28;20241;-72
2023/08/20 06:35:53;;;;;;;6.45;5.00;;;25.90;99.90;;;;;;5071262;28;20282;-72
2023/08/20 06:38:22;;;;;;;5.40;4.55;;;25.80;99.90;;;;;;5071262;28;20232;-72
2023/08/20 06:40:49;;;;;;;4.93;4.40;;;25.70;99.90;;;;;;5070724;28;20283;-71
2023/08/20 06:43:16;;;;;;;6.22;4.97;;;25.80;99.90;;;;;;5069041;28;20236;-72
2023/08/20 06:45:43;;;;;;;4.93;4.50;;;25.90;99.90;;;;;;5044161;28;20206;-71
2023/08/20 06:48:10;;;;;;;5.75;4.85;;;26.20;99.90;;;;;;5069296;28;20287;-72
2023/08/20 06:50:37;;;;;;;4.53;4.13;;;26.40;99.90;;;;;;5069160;28;20225;-72
2023/08/20 06:53:05;;;;;;;4.80;4.30;;;26.50;99.90;;;;;;5070877;28;20248;-72
2023/08/20 06:55:33;;;;;;;5.05;4.55;;;26.60;99.90;;;;;;5066365;28;20230;-72
2023/08/20 06:58:00;;;;;;;4.57;4.15;;;26.70;99.90;;;;;;5069104;28;20662;-72
2023/08/20 07:00:27;;;;;;;5.93;4.68;;;26.80;99.90;;;;;;5052541;28;20853;-71
2023/08/20 07:02:54;;;;;;;5.30;4.80;;;26.80;99.90;;;;;;5048579;28;22052;-72
2023/08/20 07:05:21;;;;;;;5.97;4.70;;;26.90;99.90;;;;;;5066280;28;20858;-72
2023/08/20 07:07:48;;;;;;;4.80;4.03;;;27.10;99.90;;;;;;5068704;28;20223;-72
2023/08/20 07:10:15;;;;;;;4.80;4.40;;;27.00;99.90;;;;;;5071498;28;20263;-72
2023/08/20 07:12:44;;;;;;;5.03;4.40;;;27.00;99.90;;;;;;5075789;28;20284;-72
2023/08/20 07:15:11;;;;;;;5.25;4.75;;;27.10;99.90;;;;;;5083202;28;20330;-71
2023/08/20 07:17:38;;;;;;;6.65;4.80;;;27.20;99.90;;;;;;5080933;28;20202;-72
2023/08/20 07:20:07;;;;;;;5.38;4.85;;;27.20;99.90;;;;;;5084623;28;20232;-71
2023/08/20 07:22:34;;;;;;;5.20;4.72;;;27.20;99.90;;;;;;5079975;28;20219;-72
2023/08/20 07:25:01;;;;;;;5.88;5.05;;;27.30;99.90;;;;;;5083354;28;20221;-71
2023/08/20 07:27:28;;;;;;;4.80;4.40;;;27.40;99.90;;;;;;5081334;28;20631;-72
2023/08/20 07:29:56;;;;;;;4.63;4.22;;;27.50;99.90;;;;;;5084592;28;20198;-72
2023/08/20 07:32:23;;;;;;;5.78;4.88;;;27.40;99.90;;;;;;5084833;28;20201;-72
2023/08/20 07:34:50;;;;;;;5.10;4.63;;;27.40;99.90;;;;;;5081758;28;20611;-71
2023/08/20 07:37:17;;;;;;;5.15;4.65;;;27.30;99.90;;;;;;5085753;28;20229;-72
2023/08/20 07:39:44;;;;;;;4.78;4.32;;;27.20;99.90;;;;;;5081877;28;20228;-71
2023/08/20 07:42:12;;;;;;;6.65;4.72;;;26.90;99.90;;;;;;5085736;28;20298;-71
2023/08/20 07:44:39;;;;;;;6.30;4.63;;;26.70;99.90;;;;;;5081803;28;20481;-71
2023/08/20 07:47:07;;;;;;;5.75;4.45;;;26.60;99.90;;;;;;5059988;28;20302;-71
2023/08/20 07:49:34;;;;;;;5.32;4.93;;;26.70;99.90;;;;;;5084219;28;20206;-71
2023/08/20 07:52:02;;;;;;;6.75;4.88;;;26.70;99.90;;;;;;5079144;28;20609;-71
2023/08/20 07:54:29;;;;;;;7.60;5.40;;;26.80;99.90;;;;;;5078392;28;20575;-71
2023/08/20 07:56:56;;;;;;;6.10;4.90;;;26.80;99.90;;;;;;5078435;28;20202;-71
2023/08/20 07:59:23;;;;;;;5.90;5.18;;;26.80;99.90;;;;;;5077114;28;20638;-71
2023/08/20 08:01:50;;;;;;;5.25;4.72;;;26.90;99.90;;;;;;5061770;28;20220;-71
2023/08/20 08:04:19;;;;;;;5.00;4.60;;;27.10;99.90;;;;;;5081880;28;20222;-71
2023/08/20 08:06:46;;;;;;;5.22;4.72;;;27.40;99.90;;;;;;5075759;28;20246;-71
2023/08/20 08:09:21;;;;;;;5.10;4.70;;;27.60;99.90;;;;;;5084481;28;20201;-72
2023/08/20 08:11:48;;;;;;;4.38;3.97;;;27.70;99.90;;;;;;5078593;28;20422;-71
2023/08/20 08:14:15;;;;;;;4.93;4.53;;;27.60;99.90;;;;;;5080968;28;20221;-71
2023/08/20 08:16:42;;;;;;;5.50;4.93;;;27.60;99.90;;;;;;5079192;28;20217;-71
2023/08/20 08:19:09;;;;;;;5.20;4.80;;;27.60;99.90;;;;;;5079672;28;20283;-71
2023/08/20 08:21:37;;;;;;;5.20;4.70;;;27.70;99.90;;;;;;5076109;28;20233;-71
2023/08/20 08:24:05;;;;;;;5.95;4.82;;;27.70;99.90;;;;;;5078693;28;20249;-71
2023/08/20 08:26:34;;;;;;;5.07;4.63;;;28.20;99.90;;;;;;5075063;28;20589;-71
2023/08/20 08:29:01;;;;;;;6.47;4.80;;;28.60;99.90;;;;;;5078567;28;20198;-71
2023/08/20 08:31:28;;;;;;;5.97;4.75;;;29.10;99.90;;;;;;5080943;28;20286;-71
2023/08/20 08:33:55;;;;;;;6.15;5.18;;;29.30;99.90;;;;;;5076249;28;20249;-71
2023/08/20 08:36:24;;;;;;;5.97;4.35;;;29.50;99.90;;;;;;5077921;28;20210;-71
2023/08/20 08:38:53;;;;;;;7.00;4.97;;;29.60;99.90;;;;;;5076967;28;20208;-71
2023/08/20 08:41:23;;;;;;;5.47;4.80;;;29.70;99.90;;;;;;5077768;28;20197;-71
2023/08/20 08:43:50;;;;;;;5.30;4.80;;;29.70;99.90;;;;;;5063154;28;20731;-71
2023/08/20 08:46:18;;;;;;;5.15;4.65;;;29.60;99.90;;;;;;5079008;28;20440;-71
2023/08/20 08:48:47;;;;;;;6.30;4.78;;;29.50;99.90;;;;;;5079200;28;20203;-71
2023/08/20 08:51:15;;;;;;;7.68;5.10;;;29.50;99.90;;;;;;5059690;28;20206;-71
2023/08/20 08:53:44;;;;;;;5.43;4.90;;;29.60;99.90;;;;;;5078441;28;20271;-71
2023/08/20 08:56:12;;;;;;;5.85;5.35;;;29.70;99.90;;;;;;5077421;28;20979;-71
2023/08/20 08:58:39;;;;;;;7.53;4.57;;;29.80;99.90;;;;;;5071148;28;20202;-70
2023/08/20 09:01:06;;;;;;;5.95;5.00;;;29.70;99.90;;;;;;5078630;28;20197;-71
2023/08/20 09:03:34;;;;;;;4.60;4.20;;;29.70;99.90;;;;;;5076944;28;20283;-71
2023/08/20 09:06:03;;;;;;;5.07;4.57;;;29.80;99.90;;;;;;5081608;28;20194;-71
2023/08/20 09:08:31;;;;;;;4.63;4.05;;;30.10;99.90;;;;;;5073059;28;20594;-71
2023/08/20 09:11:00;;;;;;;4.60;4.20;;;30.40;99.90;;;;;;5079307;28;20270;-71
2023/08/20 09:13:35;;;;;;;7.60;4.75;;;30.80;99.90;;;;;;5076634;28;20198;-72
2023/08/20 09:16:05;;;;;;;6.10;5.38;;;31.10;99.90;;;;;;5078340;28;20277;-72
2023/08/20 09:18:33;;;;;;;6.80;5.00;;;31.10;99.90;;;;;;5076490;28;20224;-71
2023/08/20 09:21:00;;;;;;;5.22;4.70;;;31.10;99.90;;;;;;5075698;28;20615;-71
2023/08/20 09:23:30;;;;;;;6.70;4.80;;;31.10;99.90;;;;;;5063277;28;20657;-71
2023/08/20 09:25:57;;;;;;;5.97;5.00;;;31.10;99.90;;;;;;5060123;28;20201;-71
2023/08/20 09:28:24;;;;;;;6.63;4.72;;;30.90;99.90;;;;;;5078717;28;20635;-71
2023/08/20 09:31:14;;;;;;;5.10;4.40;;;30.80;99.90;;;;;;5074523;28;20229;-71
2023/08/20 09:33:50;;;;;;;12.85;5.40;;;30.70;99.90;;;;;;5072828;28;20298;-71
2023/08/20 09:36:17;;;;;;;5.90;4.50;;;30.80;99.90;;;;;;5074549;28;20215;-71
2023/08/20 09:38:45;;;;;;;5.00;4.50;;;30.90;99.90;;;;;;5057277;28;20202;-72
2023/08/20 09:41:13;;;;;;;5.50;5.00;;;31.20;99.90;;;;;;5079364;28;20287;-71
2023/08/20 09:43:42;;;;;;;5.55;5.05;;;31.60;99.90;;;;;;5079254;28;20919;-71
2023/08/20 09:46:13;;;;;;;5.00;4.32;;;31.70;99.90;;;;;;5079551;28;20263;-71
2023/08/20 09:48:45;;;;;;;5.13;4.53;;;31.60;99.90;;;;;;5059520;28;20230;-71
2023/08/20 09:51:14;;;;;;;4.80;4.40;;;31.50;99.90;;;;;;5080139;28;20209;-72
2023/08/20 09:53:49;;;;;;;7.03;4.45;;;31.50;99.90;;;;;;5055777;28;20279;-73
2023/08/20 09:56:27;;;;;;;5.80;5.03;;;31.70;99.90;;;;;;5071664;28;20261;-72
2023/08/20 09:58:55;;;;;;;7.22;4.85;;;31.70;99.90;;;;;;5070923;28;20206;-71
2023/08/20 10:01:23;;;;;;;5.93;4.30;;;31.60;99.90;;;;;;5074489;28;20670;-72
2023/08/20 10:03:51;;;;;;;4.90;4.45;;;31.60;99.90;;;;;;5071584;28;20218;-71
2023/08/20 10:06:19;;;;;;;6.25;4.75;;;31.70;99.90;;;;;;5077167;28;20214;-71
2023/08/20 10:08:49;;;;;;;4.50;4.20;;;31.70;99.90;;;;;;5059789;28;20755;-71
2023/08/20 10:11:16;;;;;;;7.65;4.80;;;31.60;99.90;;;;;;5074728;28;20251;-72
2023/08/20 10:13:43;;;;;;;5.20;4.53;;;31.60;99.90;;;;;;5065368;28;20250;-71
2023/08/20 10:16:13;;;;;;;4.43;4.03;;;31.70;99.90;;;;;;5076165;28;20896;-72
2023/08/20 10:18:40;;;;;;;5.20;4.70;;;31.70;99.90;;;;;;5075236;28;20206;-72
2023/08/20 10:21:09;;;;;;;5.43;4.78;;;31.90;99.90;;;;;;5078284;28;20243;-72
2023/08/20 10:23:42;;;;;;;8.00;5.00;;;32.10;99.90;;;;;;5078516;28;20245;-72
2023/08/20 10:26:10;;;;;;;7.25;4.90;;;32.20;99.90;;;;;;5078350;28;20201;-71
2023/08/20 10:28:37;;;;;;;5.20;4.70;;;32.30;99.90;;;;;;5078341;28;20259;-72
2023/08/20 10:31:07;;;;;;;5.60;4.88;;;32.20;99.90;;;;;;5083114;28;20274;-72
2023/08/20 10:33:35;;;;;;;4.85;4.45;;;32.00;99.90;;;;;;5078253;28;20202;-72
2023/08/20 10:36:11;;;;;;;5.60;4.53;;;31.80;99.90;;;;;;5077467;28;20343;-71
2023/08/20 10:38:39;;;;;;;4.93;4.40;;;32.00;99.90;;;;;;5081983;28;20279;-72
2023/08/20 10:41:09;;;;;;;4.53;4.05;;;32.20;99.90;;;;;;5077088;28;20614;-72
2023/08/20 10:43:38;;;;;;;4.20;3.80;;;32.30;99.90;;;;;;5078811;28;20247;-72
2023/08/20 10:46:10;;;;;;;5.20;4.70;;;32.50;99.90;;;;;;5083935;28;20201;-72
2023/08/20 10:48:39;;;;;;;6.40;4.68;;;32.60;99.90;;;;;;5082696;28;20311;-72
2023/08/20 10:51:13;;;;;;;5.60;4.47;;;32.70;99.90;;;;;;5084631;28;20206;-71
2023/08/20 10:53:42;;;;;;;5.07;4.10;;;32.50;99.90;;;;;;5072936;28;20212;-72
2023/08/20 10:56:14;;;;;;;4.68;4.07;;;32.40;99.90;;;;;;5078854;28;20273;-72
2023/08/20 10:58:46;;;;;;;5.88;4.72;;;32.30;99.90;;;;;;5081317;28;20573;-72
2023/08/20 11:01:23;;;;;;;6.07;4.50;;;32.10;99.90;;;;;;5080833;28;20190;-72
2023/08/20 11:03:51;;;;;;;5.28;4.78;;;32.10;99.90;;;;;;5062513;28;20302;-72
2023/08/20 11:06:20;;;;;;;5.25;4.13;;;31.90;99.90;;;;;;5076684;28;20741;-71
2023/08/20 11:08:47;;;;;;;6.32;4.22;;;32.00;99.90;;;;;;5081166;28;20221;-72
2023/08/20 11:11:14;;;;;;;4.53;4.13;;;32.20;99.90;;;;;;5082065;28;20225;-72
2023/08/20 11:13:42;;;;;;;4.57;3.95;;;32.10;99.90;;;;;;5075164;28;20248;-72
2023/08/20 11:16:09;;;;;;;5.03;3.97;;;32.30;99.90;;;;;;5083766;28;20206;-72
2023/08/20 11:18:37;;;;;;;7.57;4.25;;;32.60;99.90;;;;;;5080163;28;20279;-72
2023/08/20 11:21:04;;;;;;;5.35;4.00;;;33.00;99.90;;;;;;5064024;28;20198;-72
2023/08/20 11:23:32;;;;;;;4.40;4.00;;;32.90;99.90;;;;;;5079372;28;20322;-71
2023/08/20 11:25:59;;;;;;;4.97;3.70;;;32.80;99.90;;;;;;5079232;28;20233;-73
2023/08/20 11:28:28;;;;;;;4.40;4.00;;;32.80;99.90;;;;;;5080232;28;20287;-72
2023/08/20 11:30:55;;;;;;;4.30;3.90;;;32.70;99.90;;;;;;5082205;28;20197;-72
2023/08/20 11:33:23;;;;;;;4.55;4.10;;;32.70;99.90;;;;;;5079181;28;20193;-71
2023/08/20 11:35:50;;;;;;;4.47;4.07;;;32.70;99.90;;;;;;5077678;28;20289;-72
2023/08/20 11:38:17;;;;;;;3.45;3.15;;;32.80;99.90;;;;;;5078556;28;20189;-72
2023/08/20 11:40:46;;;;;;;4.93;4.03;;;32.90;99.90;;;;;;5078287;28;20252;-72
2023/08/20 11:43:13;;;;;;;5.22;3.92;;;32.90;99.90;;;;;;5082511;28;20217;-73
2023/08/20 11:45:48;;;;;;;7.63;3.75;;;32.90;99.90;;;;;;5058118;28;20225;-72
2023/08/20 11:48:16;;;;;;;4.40;4.00;;;32.90;99.90;;;;;;5080849;28;20572;-72
2023/08/20 11:50:43;;;;;;;5.80;4.35;;;32.90;99.90;;;;;;5082315;28;20194;-72
2023/08/20 11:53:11;;;;;;;4.85;4.30;;;32.60;99.90;;;;;;5077900;28;20260;-72
2023/08/20 11:55:40;;;;;;;4.97;4.47;;;32.50;99.90;;;;;;5077559;28;20226;-73
2023/08/20 11:58:11;;;;;;;8.48;4.60;;;32.30;99.90;;;;;;5078930;28;20663;-72
2023/08/20 12:00:38;;;;;;;5.97;4.25;;;32.40;99.90;;;;;;5080363;28;20202;-72
2023/08/20 12:03:05;;;;;;;4.25;3.83;;;32.40;99.90;;;;;;5079759;28;20319;-71
2023/08/20 12:05:32;;;;;;;6.28;4.20;;;32.50;99.90;;;;;;5069948;28;20226;-72
2023/08/20 12:08:00;;;;;;;5.93;4.28;;;32.60;99.90;;;;;;5082445;28;20194;-72
2023/08/20 12:10:29;;;;;;;4.65;4.20;;;32.70;99.90;;;;;;5075723;28;20226;-73
2023/08/20 12:12:57;;;;;;;4.40;3.88;;;32.70;99.90;;;;;;5081597;28;20210;-72
2023/08/20 12:15:26;;;;;;;4.00;3.70;;;32.50;99.90;;;;;;5077535;28;20287;-72
2023/08/20 12:18:01;;;;;;;4.70;4.20;;;32.70;99.90;;;;;;5076857;28;20237;-72
2023/08/20 12:20:32;;;;;;;4.47;4.07;;;32.60;99.90;;;;;;5077913;28;20229;-72
2023/08/20 12:23:01;;;;;;;5.30;3.88;;;32.60;99.90;;;;;;5078534;28;20254;-72
2023/08/20 12:25:30;;;;;;;4.22;3.83;;;32.60;99.90;;;;;;5078997;28;20221;-73
2023/08/20 12:27:57;;;;;;;4.63;4.22;;;32.70;99.90;;;;;;5079231;28;20796;-71
2023/08/20 12:30:26;;;;;;;4.55;4.07;;;32.70;99.90;;;;;;5049687;28;20775;-73
2023/08/20 12:32:53;;;;;;;4.53;4.10;;;32.70;99.90;;;;;;5077661;28;20194;-72
2023/08/20 12:35:20;;;;;;;4.13;3.75;;;32.60;99.90;;;;;;5074739;28;20707;-72
2023/08/20 12:37:47;;;;;;;4.20;3.80;;;32.60;99.90;;;;;;5080809;28;20198;-72
2023/08/20 12:40:15;;;;;;;5.07;3.90;;;32.70;99.90;;;;;;5078796;28;20256;-73
2023/08/20 12:42:42;;;;;;;4.10;3.75;;;32.80;99.90;;;;;;5078215;28;20745;-72
2023/08/20 12:45:10;;;;;;;3.95;3.45;;;32.90;99.90;;;;;;5079286;28;20233;-72
2023/08/20 12:47:38;;;;;;;4.20;3.85;;;33.10;99.90;;;;;;5062649;28;20197;-72
2023/08/20 12:50:06;;;;;;;4.07;3.67;;;33.60;99.90;;;;;;5080468;28;20201;-72
2023/08/20 12:52:34;;;;;;;5.95;3.95;;;33.70;99.90;;;;;;5076505;28;20203;-72